createdAt,value
2024-03-12T00:01:28.612Z,67.83
2024-03-12T00:04:00.417Z,68.44
2024-03-12T00:06:33.061Z,70.43
2024-03-12T00:09:08.674Z,69.35
2024-03-12T00:11:39.666Z,70.45
2024-03-12T00:14:10.211Z,71.27
2024-03-12T00:16:42.775Z,70.09
2024-03-12T00:19:13.221Z,71.31
2024-03-12T00:21:45.038Z,71.25
2024-03-12T00:24:15.181Z,72.83
2024-03-12T00:26:48.821Z,71.54
2024-03-12T00:29:21.439Z,71.01
2024-03-12T00:31:53.505Z,70.75
2024-03-12T00:34:23.625Z,73.62
2024-03-12T00:36:54.735Z,71.66
2024-03-12T00:39:25.350Z,70.54
2024-03-12T00:41:58.652Z,70.40
2024-03-12T00:44:29.478Z,69.57
2024-03-12T00:46:59.796Z,69.11
2024-03-12T00:49:33.097Z,68.94
2024-03-12T00:52:05.988Z,69.31
2024-03-12T00:54:38.398Z,69.06
2024-03-12T00:57:09.115Z,69.08
2024-03-12T00:59:39.821Z,68.89
2024-03-12T01:02:14.811Z,69.34
2024-03-12T01:04:45.435Z,69.38
2024-03-12T01:07:15.965Z,69.13
2024-03-12T01:09:47.084Z,69.29
2024-03-12T01:12:17.958Z,69.45
2024-03-12T01:14:49.672Z,69.14
2024-03-12T01:17:22.959Z,69.57
2024-03-12T01:19:53.644Z,69.32
2024-03-12T01:22:27.164Z,69.63
2024-03-12T01:24:57.777Z,69.58
2024-03-12T01:27:29.103Z,69.34
2024-03-12T01:29:59.571Z,69.57
2024-03-12T01:32:29.791Z,69.46
2024-03-12T01:35:00.524Z,69.33
2024-03-12T01:37:32.122Z,69.26
2024-03-12T01:40:02.889Z,69.22
2024-03-12T01:42:34.130Z,69.04
2024-03-12T01:45:07.989Z,68.84
2024-03-12T01:47:38.562Z,69.12
2024-03-12T01:50:09.521Z,68.97
2024-03-12T01:52:39.976Z,68.92
2024-03-12T01:55:10.937Z,68.76
2024-03-12T01:57:47.688Z,69.33
2024-03-12T02:00:20.062Z,68.51
2024-03-12T02:02:54.563Z,68.51
2024-03-12T02:05:25.034Z,68.49
2024-03-12T02:07:56.099Z,68.88
2024-03-12T02:10:29.659Z,68.52
2024-03-12T02:13:00.526Z,68.27
2024-03-12T02:15:31.092Z,68.26
2024-03-12T02:18:01.856Z,68.27
2024-03-12T02:20:32.331Z,67.87
2024-03-12T02:23:06.214Z,67.86
2024-03-12T02:25:37.002Z,67.49
2024-03-12T02:28:08.543Z,67.83
2024-03-12T02:30:39.286Z,67.74
2024-03-12T02:33:10.716Z,67.30
2024-03-12T02:35:41.715Z,67.63
2024-03-12T02:38:12.065Z,66.99
2024-03-12T02:40:42.878Z,67.09
2024-03-12T02:43:15.924Z,66.39
2024-03-12T02:45:50.526Z,66.34
2024-03-12T02:48:21.301Z,66.26
2024-03-12T02:50:51.814Z,65.90
2024-03-12T02:53:28.603Z,65.92
2024-03-12T02:55:59.164Z,65.86
2024-03-12T02:58:30.192Z,65.57
2024-03-12T03:01:00.925Z,65.47
2024-03-12T03:03:31.366Z,65.56
2024-03-12T03:06:02.693Z,65.63
2024-03-12T03:08:33.465Z,65.23
2024-03-12T03:11:04.173Z,65.52
2024-03-12T03:13:37.948Z,65.26
2024-03-12T03:16:08.689Z,65.32
2024-03-12T03:18:39.617Z,65.09
2024-03-12T03:21:11.664Z,65.22
2024-03-12T03:23:44.731Z,65.21
2024-03-12T03:26:15.580Z,65.12
2024-03-12T03:28:46.251Z,65.25
2024-03-12T03:31:17.384Z,65.14
2024-03-12T03:33:49.682Z,65.08
2024-03-12T03:36:20.356Z,64.80
2024-03-12T03:38:50.728Z,65.12
2024-03-12T03:41:22.172Z,64.93
2024-03-12T03:43:53.840Z,64.63
2024-03-12T03:46:26.112Z,65.08
2024-03-12T03:48:58.038Z,64.77
2024-03-12T03:51:29.174Z,65.06
2024-03-12T03:54:03.253Z,65.02
2024-03-12T03:56:34.121Z,64.89
2024-03-12T03:59:06.164Z,64.77
2024-03-12T04:01:37.249Z,65.04
2024-03-12T04:04:14.996Z,64.92
2024-03-12T04:06:46.591Z,64.90
2024-03-12T04:09:17.849Z,64.78
2024-03-12T04:11:51.167Z,64.95
2024-03-12T04:14:22.022Z,64.90
2024-03-12T04:16:52.668Z,64.70
2024-03-12T04:19:23.170Z,64.90
2024-03-12T04:21:53.951Z,64.57
2024-03-12T04:24:24.811Z,64.65
2024-03-12T04:26:55.903Z,64.52
2024-03-12T04:29:26.592Z,64.38
2024-03-12T04:31:57.407Z,64.46
2024-03-12T04:34:27.963Z,64.41
2024-03-12T04:37:00.922Z,63.94
2024-03-12T04:39:34.605Z,64.47
2024-03-12T04:42:09.724Z,64.05
2024-03-12T04:44:40.823Z,64.21
2024-03-12T04:47:12.091Z,64.21
2024-03-12T04:49:43.434Z,63.88
2024-03-12T04:52:14.284Z,64.48
2024-03-12T04:54:45.500Z,64.14
2024-03-12T04:57:16.312Z,64.29
2024-03-12T04:59:47.049Z,64.05
2024-03-12T05:02:18.027Z,63.98
2024-03-12T05:04:48.920Z,63.96
2024-03-12T05:07:20.107Z,63.70
2024-03-12T05:09:51.037Z,63.76
2024-03-12T05:12:22.006Z,63.88
2024-03-12T05:14:53.247Z,63.64
2024-03-12T05:17:24.355Z,63.75
2024-03-12T05:19:55.768Z,63.64
2024-03-12T05:22:26.640Z,63.79
2024-03-12T05:24:57.208Z,63.45
2024-03-12T05:27:35.701Z,63.54
2024-03-12T05:30:13.531Z,63.37
2024-03-12T05:32:50.693Z,63.16
2024-03-12T05:35:25.021Z,63.55
2024-03-12T05:38:06.571Z,63.47
2024-03-12T05:40:59.291Z,63.38
2024-03-12T05:43:50.321Z,63.18
2024-03-12T05:46:49.516Z,63.45
2024-03-12T05:49:22.826Z,63.37
2024-03-12T05:51:55.486Z,63.34
2024-03-12T05:54:26.441Z,63.24
2024-03-12T05:56:57.277Z,63.37
2024-03-12T05:59:28.569Z,63.15
2024-03-12T06:02:00.607Z,63.19
2024-03-12T06:04:34.632Z,62.89
2024-03-12T06:07:05.438Z,62.68
2024-03-12T06:09:36.399Z,62.75
2024-03-12T06:12:09.091Z,63.20
2024-03-12T06:14:40.021Z,62.73
2024-03-12T06:17:10.952Z,62.56
2024-03-12T06:19:42.472Z,62.80
2024-03-12T06:22:13.454Z,62.79
2024-03-12T06:24:44.722Z,62.93
2024-03-12T06:27:15.507Z,62.41
2024-03-12T06:29:53.886Z,62.34
2024-03-12T06:32:27.399Z,62.44
2024-03-12T06:35:00.229Z,62.67
2024-03-12T06:37:30.847Z,62.67
2024-03-12T06:40:02.652Z,62.73
2024-03-12T06:42:33.930Z,62.58
2024-03-12T06:45:05.766Z,62.12
2024-03-12T06:47:43.573Z,62.54
2024-03-12T06:50:14.686Z,62.37
2024-03-12T06:52:49.515Z,62.58
2024-03-12T06:55:26.039Z,62.37
2024-03-12T06:58:02.368Z,62.53
2024-03-12T07:00:40.176Z,62.21
2024-03-12T07:03:11.738Z,62.11
2024-03-12T07:05:48.070Z,62.17
2024-03-12T07:08:19.690Z,62.26
2024-03-12T07:10:52.874Z,61.80
2024-03-12T07:13:25.719Z,62.01
2024-03-12T07:15:56.603Z,61.86
2024-03-12T07:18:27.190Z,62.44
2024-03-12T07:20:58.746Z,61.96
2024-03-12T07:23:28.939Z,62.31
2024-03-12T07:26:00.849Z,61.90
2024-03-12T07:28:31.460Z,62.27
2024-03-12T07:31:02.037Z,62.34
2024-03-12T07:33:32.713Z,62.61
2024-03-12T07:36:06.390Z,62.27
2024-03-12T07:38:37.061Z,61.87
2024-03-12T07:41:11.363Z,62.33
2024-03-12T07:43:41.996Z,62.51
2024-03-12T07:46:14.193Z,62.04
2024-03-12T07:48:46.270Z,62.39
2024-03-12T07:51:17.171Z,61.96
2024-03-12T07:53:48.397Z,62.40
2024-03-12T07:56:20.895Z,62.13
2024-03-12T07:58:51.462Z,62.24
2024-03-12T08:01:22.864Z,61.77
2024-03-12T08:03:53.868Z,61.61
2024-03-12T08:06:25.515Z,62.32
2024-03-12T08:08:55.766Z,61.50
2024-03-12T08:11:26.729Z,61.72
2024-03-12T08:13:57.397Z,62.02
2024-03-12T08:16:28.404Z,61.52
2024-03-12T08:19:00.881Z,62.05
2024-03-12T08:21:31.643Z,61.79
2024-03-12T08:24:02.245Z,61.44
2024-03-12T08:26:35.769Z,61.99
2024-03-12T08:29:07.089Z,61.89
2024-03-12T08:31:47.472Z,61.49
2024-03-12T08:34:23.426Z,61.67
2024-03-12T08:36:54.297Z,61.51
2024-03-12T08:39:25.093Z,61.48
2024-03-12T08:41:56.975Z,61.28
2024-03-12T08:44:28.996Z,61.80
2024-03-12T08:47:00.617Z,61.42
2024-03-12T08:49:31.630Z,61.34
2024-03-12T08:52:02.322Z,61.58
2024-03-12T08:54:36.170Z,61.32
2024-03-12T08:57:07.359Z,61.47
2024-03-12T08:59:38.136Z,61.14
2024-03-12T09:02:09.134Z,61.36
2024-03-12T09:04:40.951Z,60.95
2024-03-12T09:07:11.804Z,61.50
2024-03-12T09:09:42.394Z,61.56
2024-03-12T09:12:13.549Z,61.55
2024-03-12T09:14:44.192Z,60.70
2024-03-12T09:17:15.021Z,61.11
2024-03-12T09:19:45.901Z,61.95
2024-03-12T09:22:16.574Z,61.57
2024-03-12T09:24:47.051Z,61.52
2024-03-12T09:27:17.748Z,61.29
2024-03-12T09:29:48.518Z,61.85
2024-03-12T09:32:19.530Z,61.46
2024-03-12T09:34:50.253Z,61.99
2024-03-12T09:37:21.694Z,61.91
2024-03-12T09:39:54.862Z,62.08
2024-03-12T09:42:29.032Z,61.41
2024-03-12T09:45:00.624Z,61.75
2024-03-12T09:47:31.276Z,61.55
2024-03-12T09:50:05.718Z,61.83
2024-03-12T09:52:37.719Z,61.43
2024-03-12T09:55:15.563Z,61.75
2024-03-12T09:57:49.373Z,61.38
2024-03-12T10:00:27.137Z,61.86
2024-03-12T10:02:58.117Z,61.50
2024-03-12T10:05:30.206Z,61.43
2024-03-12T10:08:17.458Z,61.04
2024-03-12T10:10:55.059Z,61.39
2024-03-12T10:13:26.182Z,61.89
2024-03-12T10:16:05.633Z,61.54
2024-03-12T10:18:37.202Z,61.58
2024-03-12T10:21:09.199Z,61.97
2024-03-12T10:23:40.397Z,62.21
2024-03-12T10:26:13.877Z,61.66
2024-03-12T10:28:49.003Z,61.27
2024-03-12T10:31:22.301Z,61.88
2024-03-12T10:33:53.229Z,62.37
2024-03-12T10:36:35.045Z,61.63
2024-03-12T10:39:14.608Z,62.34
2024-03-12T10:41:50.978Z,62.39
2024-03-12T10:44:21.664Z,62.35
2024-03-12T10:46:52.526Z,61.95
2024-03-12T10:49:27.800Z,61.99
2024-03-12T10:52:00.415Z,62.37
2024-03-12T10:54:37.821Z,62.81
2024-03-12T10:57:10.393Z,63.23
2024-03-12T10:59:42.572Z,62.59
2024-03-12T11:02:15.103Z,63.04
2024-03-12T11:04:50.702Z,62.87
2024-03-12T11:07:21.441Z,62.90
2024-03-12T11:09:53.845Z,63.21
2024-03-12T11:12:27.431Z,63.39
2024-03-12T11:14:58.356Z,63.73
2024-03-12T11:17:31.182Z,63.41
2024-03-12T11:20:03.726Z,63.25
2024-03-12T11:22:38.123Z,63.96
2024-03-12T11:25:11.372Z,64.03
2024-03-12T11:27:43.488Z,63.69
2024-03-12T11:30:16.789Z,64.51
2024-03-12T11:32:52.903Z,63.92
2024-03-12T11:35:23.842Z,63.29
2024-03-12T11:38:02.841Z,63.88
2024-03-12T11:40:34.833Z,63.79
2024-03-12T11:43:06.120Z,63.80
2024-03-12T11:45:50.747Z,63.35
2024-03-12T11:48:34.821Z,63.53
2024-03-12T11:51:13.844Z,63.91
2024-03-12T11:53:49.697Z,63.11
2024-03-12T11:56:25.843Z,63.74
2024-03-12T11:59:03.137Z,63.25
2024-03-12T12:01:38.428Z,63.89
2024-03-12T12:04:12.195Z,63.60
2024-03-12T12:06:46.440Z,64.00
2024-03-12T12:09:17.178Z,63.99
2024-03-12T12:11:50.457Z,63.64
2024-03-12T12:14:24.621Z,63.89
2024-03-12T12:17:05.251Z,64.76
2024-03-12T12:19:42.291Z,64.35
2024-03-12T12:22:15.614Z,64.13
2024-03-12T12:24:47.852Z,64.73
2024-03-12T12:27:19.709Z,64.83
2024-03-12T12:29:50.548Z,64.31
2024-03-12T12:32:22.925Z,64.78
2024-03-12T12:34:57.185Z,64.87
2024-03-12T12:37:28.233Z,64.85
2024-03-12T12:40:00.953Z,64.89
2024-03-12T12:42:36.023Z,65.11
2024-03-12T12:45:16.532Z,64.60
2024-03-12T12:47:53.370Z,64.74
2024-03-12T12:50:28.921Z,64.80
2024-03-12T12:53:03.824Z,65.37
2024-03-12T12:55:41.533Z,65.38
2024-03-12T12:58:14.800Z,64.87
2024-03-12T13:01:02.000Z,65.07
2024-03-12T13:03:40.320Z,65.70
2024-03-12T13:06:27.862Z,66.11
2024-03-12T13:08:59.170Z,65.89
2024-03-12T13:11:33.902Z,65.90
2024-03-12T13:14:10.485Z,65.74
2024-03-12T13:16:45.269Z,65.47
2024-03-12T13:19:22.536Z,65.42
2024-03-12T13:21:55.558Z,65.69
2024-03-12T13:24:26.845Z,65.61
2024-03-12T13:27:00.917Z,65.58
2024-03-12T13:29:34.799Z,65.54
2024-03-12T13:32:05.787Z,65.66
2024-03-12T13:34:38.167Z,65.52
2024-03-12T13:37:09.604Z,66.07
2024-03-12T13:39:40.267Z,66.46
2024-03-12T13:42:12.631Z,66.12
2024-03-12T13:44:44.435Z,65.74
2024-03-12T13:47:15.174Z,66.08
2024-03-12T13:49:45.928Z,65.97
2024-03-12T13:52:17.074Z,65.96
2024-03-12T13:54:47.882Z,65.69
2024-03-12T13:57:19.228Z,66.08
2024-03-12T13:59:51.124Z,65.53
2024-03-12T14:02:25.358Z,65.40
2024-03-12T14:04:56.413Z,63.72
2024-03-12T14:07:27.298Z,63.09
2024-03-12T14:09:59.542Z,61.59
2024-03-12T14:12:31.054Z,60.99
2024-03-12T14:15:01.865Z,60.61
2024-03-12T14:17:33.185Z,59.94
2024-03-12T14:20:08.319Z,59.59
2024-03-12T14:22:41.667Z,59.27
2024-03-12T14:25:13.920Z,59.07
2024-03-12T14:27:45.669Z,58.80
2024-03-12T14:30:17.134Z,58.64
2024-03-12T14:32:51.333Z,58.59
2024-03-12T14:35:24.637Z,59.09
2024-03-12T14:37:58.209Z,58.44
2024-03-12T14:40:29.820Z,58.13
2024-03-12T14:43:03.073Z,57.88
2024-03-12T14:45:35.212Z,58.18
2024-03-12T14:48:07.132Z,58.07
2024-03-12T14:50:40.755Z,57.33
2024-03-12T14:53:12.998Z,57.47
2024-03-12T14:55:46.152Z,57.45
2024-03-12T14:58:17.935Z,56.98
2024-03-12T15:00:49.173Z,56.61
2024-03-12T15:03:21.136Z,57.08
2024-03-12T15:05:56.810Z,56.57
2024-03-12T15:08:27.708Z,56.97
2024-03-12T15:11:01.113Z,56.75
2024-03-12T15:13:32.940Z,56.84
2024-03-12T15:16:03.991Z,57.19
2024-03-12T15:18:36.689Z,56.63
2024-03-12T15:21:08.086Z,56.53
2024-03-12T15:23:39.090Z,56.46
2024-03-12T15:26:13.636Z,56.61
2024-03-12T15:28:45.317Z,56.36
2024-03-12T15:31:18.591Z,56.27
2024-03-12T15:33:49.593Z,56.83
2024-03-12T15:36:23.204Z,57.04
2024-03-12T15:38:54.469Z,56.88
2024-03-12T15:41:28.449Z,56.74
2024-03-12T15:43:59.347Z,56.77
2024-03-12T15:46:32.245Z,56.52
2024-03-12T15:49:04.299Z,56.65
2024-03-12T15:51:35.961Z,56.45
2024-03-12T15:54:07.068Z,56.69
2024-03-12T15:56:39.118Z,56.47
2024-03-12T15:59:10.812Z,56.69
2024-03-12T16:01:43.280Z,56.39
2024-03-12T16:04:20.389Z,56.17
2024-03-12T16:06:51.306Z,56.29
2024-03-12T16:09:23.252Z,56.21
2024-03-12T16:11:54.657Z,55.71
2024-03-12T16:14:26.052Z,55.84
2024-03-12T16:16:57.121Z,55.73
2024-03-12T16:19:32.106Z,55.98
2024-03-12T16:22:03.390Z,55.94
2024-03-12T16:24:34.659Z,56.09
2024-03-12T16:27:06.878Z,55.64
2024-03-12T16:29:37.987Z,56.09
2024-03-12T16:32:13.113Z,55.46
2024-03-12T16:34:45.570Z,56.12
2024-03-12T16:37:17.116Z,56.09
2024-03-12T16:39:49.054Z,55.79
2024-03-12T16:42:21.018Z,55.50
2024-03-12T16:44:55.055Z,56.06
2024-03-12T16:47:29.866Z,55.86
2024-03-12T16:50:07.856Z,55.74
2024-03-12T16:52:41.609Z,55.92
2024-03-12T16:55:13.540Z,55.67
2024-03-12T16:57:44.905Z,55.43
2024-03-12T17:00:17.973Z,56.06
2024-03-12T17:02:49.501Z,55.44
2024-03-12T17:05:27.398Z,55.15
2024-03-12T17:08:01.094Z,55.41
2024-03-12T17:10:35.185Z,55.69
2024-03-12T17:13:07.789Z,55.66
2024-03-12T17:15:42.412Z,55.66
2024-03-12T17:18:15.508Z,55.90
2024-03-12T17:20:46.556Z,55.71
2024-03-12T17:23:17.668Z,55.62
2024-03-12T17:25:48.636Z,55.37
2024-03-12T17:28:19.555Z,55.43
2024-03-12T17:30:52.211Z,55.66
2024-03-12T17:33:24.030Z,55.69
2024-03-12T17:35:55.885Z,55.21
2024-03-12T17:38:32.646Z,55.42
2024-03-12T17:41:04.697Z,54.99
2024-03-12T17:43:38.792Z,55.32
2024-03-12T17:46:17.390Z,55.09
2024-03-12T17:48:48.964Z,55.12
2024-03-12T17:51:20.325Z,55.51
2024-03-12T17:53:52.576Z,55.23
2024-03-12T17:56:30.693Z,54.95
2024-03-12T17:59:03.059Z,55.39
2024-03-12T18:01:35.096Z,55.31
2024-03-12T18:04:07.767Z,55.16
2024-03-12T18:06:45.379Z,55.23
2024-03-12T18:09:26.800Z,55.30
2024-03-12T18:11:57.775Z,55.31
2024-03-12T18:14:31.437Z,55.63
2024-03-12T18:17:07.065Z,55.49
2024-03-12T18:19:39.012Z,55.75
2024-03-12T18:22:10.486Z,55.86
2024-03-12T18:24:41.688Z,55.81
2024-03-12T18:27:12.600Z,55.87
2024-03-12T18:29:46.148Z,55.60
2024-03-12T18:32:18.201Z,55.71
2024-03-12T18:34:49.788Z,55.36
2024-03-12T18:37:20.628Z,55.62
2024-03-12T18:39:51.951Z,55.54
2024-03-12T18:42:22.907Z,55.57
2024-03-12T18:44:56.119Z,55.41
2024-03-12T18:47:27.098Z,55.73
2024-03-12T18:49:58.794Z,55.37
2024-03-12T18:52:29.870Z,55.58
2024-03-12T18:55:01.590Z,55.83
2024-03-12T18:57:32.677Z,55.80
2024-03-12T19:00:09.386Z,55.73
2024-03-12T19:02:41.845Z,55.58
2024-03-12T19:05:14.620Z,55.08
2024-03-12T19:07:47.198Z,55.21
2024-03-12T19:10:19.075Z,55.17
2024-03-12T19:12:50.266Z,55.61
2024-03-12T19:15:25.324Z,55.81
2024-03-12T19:17:57.651Z,55.44
2024-03-12T19:20:29.425Z,55.20
2024-03-12T19:23:01.486Z,55.13
2024-03-12T19:25:31.865Z,55.27
2024-03-12T19:28:05.401Z,55.33
2024-03-12T19:30:37.147Z,55.78
2024-03-12T19:33:08.918Z,55.80
2024-03-12T19:35:41.259Z,55.40
2024-03-12T19:38:12.321Z,55.31
2024-03-12T19:40:43.503Z,55.79
2024-03-12T19:43:14.541Z,55.39
2024-03-12T19:45:45.760Z,55.45
2024-03-12T19:48:19.651Z,55.36
2024-03-12T19:50:52.588Z,55.36
2024-03-12T19:53:23.205Z,55.44
2024-03-12T19:55:56.632Z,55.29
2024-03-12T19:58:28.137Z,55.80
2024-03-12T20:00:59.183Z,55.36
2024-03-12T20:03:30.189Z,55.60
2024-03-12T20:06:01.785Z,55.97
2024-03-12T20:08:32.840Z,55.70
2024-03-12T20:11:03.720Z,55.56
2024-03-12T20:13:37.719Z,55.92
2024-03-12T20:16:11.865Z,55.94
2024-03-12T20:18:46.098Z,55.88
2024-03-12T20:21:19.894Z,55.33
2024-03-12T20:23:53.502Z,55.33
2024-03-12T20:26:24.221Z,55.96
2024-03-12T20:28:57.978Z,55.49
2024-03-12T20:31:29.021Z,55.86
2024-03-12T20:34:00.114Z,55.37
2024-03-12T20:36:30.909Z,55.37
2024-03-12T20:39:01.646Z,55.45
2024-03-12T20:41:32.724Z,55.66
2024-03-12T20:44:04.089Z,55.77
2024-03-12T20:46:34.875Z,55.71
2024-03-12T20:49:05.671Z,55.83
2024-03-12T20:51:36.686Z,55.92
2024-03-12T20:54:07.389Z,55.82
2024-03-12T20:56:38.083Z,55.71
2024-03-12T20:59:09.791Z,55.28
2024-03-12T21:01:43.717Z,55.25
2024-03-12T21:04:14.773Z,55.38
2024-03-12T21:06:49.988Z,55.83
2024-03-12T21:09:28.516Z,55.75
2024-03-12T21:12:00.107Z,55.74
2024-03-12T21:14:32.158Z,55.86
2024-03-12T21:17:05.736Z,55.17
2024-03-12T21:19:36.327Z,55.65
2024-03-12T21:22:10.669Z,55.22
2024-03-12T21:24:41.675Z,55.34
2024-03-12T21:27:12.268Z,55.74
2024-03-12T21:29:42.853Z,55.25
2024-03-12T21:32:15.175Z,55.25
2024-03-12T21:34:46.237Z,55.28
2024-03-12T21:37:16.941Z,55.20
2024-03-12T21:39:49.156Z,55.20
2024-03-12T21:42:21.497Z,55.54
2024-03-12T21:44:54.995Z,55.70
2024-03-12T21:47:26.683Z,55.35
2024-03-12T21:49:58.062Z,55.31
2024-03-12T21:52:29.938Z,55.80
2024-03-12T21:55:00.933Z,55.88
2024-03-12T21:57:31.690Z,55.72
2024-03-12T22:00:02.399Z,55.19
2024-03-12T22:02:43.792Z,55.41
2024-03-12T22:05:17.394Z,55.35
2024-03-12T22:07:51.633Z,55.89
2024-03-12T22:10:23.176Z,55.80
2024-03-12T22:12:54.632Z,55.28
2024-03-12T22:15:27.005Z,55.17
2024-03-12T22:17:58.636Z,55.74
2024-03-12T22:20:29.427Z,55.63
2024-03-12T22:23:00.523Z,55.71
2024-03-12T22:25:31.982Z,55.70
2024-03-12T22:28:03.016Z,55.39
2024-03-12T22:30:33.773Z,55.04
2024-03-12T22:33:05.826Z,55.07
2024-03-12T22:35:36.703Z,55.17
2024-03-12T22:38:08.289Z,54.97
2024-03-12T22:40:39.736Z,55.07
2024-03-12T22:43:11.235Z,55.42
2024-03-12T22:45:42.045Z,55.16
2024-03-12T22:48:13.266Z,55.56
2024-03-12T22:50:44.983Z,55.52
2024-03-12T22:53:18.294Z,55.07
2024-03-12T22:55:49.160Z,55.13
2024-03-12T22:58:20.353Z,55.09
2024-03-12T23:00:53.459Z,55.38
2024-03-12T23:03:26.596Z,55.94
2024-03-12T23:05:58.179Z,56.97
2024-03-12T23:08:32.341Z,57.34
2024-03-12T23:11:03.056Z,57.67
2024-03-12T23:13:34.143Z,58.08
2024-03-12T23:16:05.021Z,58.61
2024-03-12T23:18:38.640Z,58.62
2024-03-12T23:21:09.363Z,59.29
2024-03-12T23:23:40.652Z,59.24
2024-03-12T23:26:13.557Z,60.31
2024-03-12T23:28:46.222Z,60.44
2024-03-12T23:31:17.247Z,63.57
2024-03-12T23:33:48.265Z,66.36
2024-03-12T23:36:23.885Z,65.91
2024-03-12T23:38:54.610Z,66.07
2024-03-12T23:41:26.397Z,67.51
2024-03-12T23:43:57.382Z,70.01
2024-03-12T23:46:28.091Z,67.78
2024-03-12T23:48:58.878Z,68.27
2024-03-12T23:51:31.066Z,70.42
2024-03-12T23:54:02.912Z,69.58
2024-03-12T23:56:33.358Z,75.05
2024-03-12T23:59:06.469Z,71.69
